Time;durP1;ratioP1;P1;durP2;ratioP2;P2;SDS_P1;SDS_P2;PMS_P1;PMS_P2;Temp;Humidity;BMP_temperature;BMP_pressure;BME280_temperature;BME280_humidity;BME280_pressure;Samples;Min_cycle;Max_cycle;Signal;HPM_P1;HPM_P2
2022/10/25 00:00:35;;;;;;;3.83;1.88;;;11.70;99.90;;;;;;5073913;28;20044;-48
2022/10/25 00:03:01;;;;;;;4.53;1.83;;;11.70;99.90;;;;;;5072639;28;20048;-48
2022/10/25 00:05:28;;;;;;;1.92;1.67;;;11.60;99.90;;;;;;5073721;28;20068;-50
2022/10/25 00:07:55;;;;;;;3.67;2.15;;;11.60;99.90;;;;;;5057085;28;20124;-48
2022/10/25 00:10:21;;;;;;;2.97;2.30;;;11.50;99.90;;;;;;5073191;28;20072;-49
2022/10/25 00:12:51;;;;;;;4.47;2.00;;;11.50;99.90;;;;;;5072394;28;20044;-48
2022/10/25 00:15:18;;;;;;;4.00;2.22;;;11.40;99.90;;;;;;5070397;28;20079;-48
2022/10/25 00:17:45;;;;;;;3.40;2.40;;;11.50;99.90;;;;;;5072846;28;20397;-48
2022/10/25 00:20:12;;;;;;;4.63;1.80;;;11.40;99.90;;;;;;5073244;28;20044;-50
2022/10/25 00:22:39;;;;;;;6.07;3.28;;;11.50;99.90;;;;;;5072580;28;20094;-49
2022/10/25 00:25:07;;;;;;;5.90;2.30;;;11.40;99.90;;;;;;5072698;28;20480;-48
2022/10/25 00:27:35;;;;;;;5.25;2.08;;;11.40;99.90;;;;;;5064655;28;20079;-50
2022/10/25 00:30:02;;;;;;;;;;;11.40;99.90;;;;;;5073836;28;20463;-49
2022/10/25 00:32:29;;;;;;;3.78;2.28;;;11.50;99.90;;;;;;5072453;28;19948;-49
2022/10/25 00:34:56;;;;;;;4.07;2.10;;;11.50;99.90;;;;;;5072821;28;20079;-48
2022/10/25 00:37:22;;;;;;;2.67;1.70;;;11.50;99.90;;;;;;5071303;28;20036;-48
2022/10/25 00:39:49;;;;;;;5.30;1.92;;;11.50;99.90;;;;;;5072819;28;20115;-51
2022/10/25 00:42:22;;;;;;;3.10;1.70;;;11.50;99.90;;;;;;5072291;28;20528;-49
2022/10/25 00:44:57;;;;;;;3.42;2.00;;;11.50;99.90;;;;;;5071434;28;20080;-48
2022/10/25 00:47:29;;;;;;;2.53;1.83;;;11.40;99.90;;;;;;5071977;28;20453;-51
2022/10/25 00:50:37;;;;;;;3.08;1.90;;;11.40;99.90;;;;;;5070213;28;20079;-48
2022/10/25 00:53:13;;;;;;;6.28;2.22;;;11.40;99.90;;;;;;4953099;28;20134;-48
2022/10/25 00:55:45;;;;;;;4.88;2.25;;;11.40;99.90;;;;;;4950259;28;20090;-50
2022/10/25 00:58:18;;;;;;;5.53;3.33;;;11.40;99.90;;;;;;5009348;28;20145;-48
2022/10/25 01:00:46;;;;;;;4.10;2.78;;;11.50;99.90;;;;;;5058556;28;20072;-48
2022/10/25 01:03:16;;;;;;;2.20;1.58;;;11.50;99.90;;;;;;5072915;28;20063;-48
2022/10/25 01:05:44;;;;;;;4.05;1.02;;;11.50;99.90;;;;;;5071118;28;20064;-48
2022/10/25 01:08:11;;;;;;;2.85;1.15;;;11.50;99.90;;;;;;5070947;28;20060;-49
2022/10/25 01:10:39;;;;;;;3.75;1.50;;;11.40;99.90;;;;;;5071692;28;20068;-48
2022/10/25 01:13:06;;;;;;;2.78;1.30;;;11.40;99.90;;;;;;5072085;28;20060;-49
2022/10/25 01:15:49;;;;;;;5.80;1.90;;;11.30;99.90;;;;;;5070425;28;20116;-48
2022/10/25 01:18:23;;;;;;;2.17;1.52;;;11.30;99.90;;;;;;5070171;28;20064;-48
2022/10/25 01:20:55;;;;;;;4.32;2.15;;;11.30;99.90;;;;;;5071910;28;20170;-49
2022/10/25 01:23:51;;;;;;;2.30;1.60;;;11.30;99.90;;;;;;5070194;28;20566;-48
2022/10/25 01:26:51;;;;;;;2.80;1.63;;;11.30;99.90;;;;;;5070604;28;20420;-49
2022/10/25 01:29:29;;;;;;;5.47;1.73;;;11.30;99.90;;;;;;5070544;28;20071;-48
2022/10/25 01:32:13;;;;;;;2.38;1.17;;;11.30;99.90;;;;;;5071919;28;20072;-48
2022/10/25 01:34:47;;;;;;;3.83;1.08;;;11.20;99.90;;;;;;5069314;28;20033;-48
2022/10/25 01:37:21;;;;;;;2.45;2.00;;;11.20;99.90;;;;;;5071823;28;20109;-48
2022/10/25 01:40:04;;;;;;;3.65;1.45;;;11.20;99.90;;;;;;5070774;28;20096;-48
2022/10/25 01:42:37;;;;;;;4.50;1.45;;;11.20;99.90;;;;;;5069071;28;20108;-48
2022/10/25 01:45:12;;;;;;;5.15;2.70;;;11.20;99.90;;;;;;5070977;28;20040;-48
2022/10/25 01:48:06;;;;;;;3.50;2.45;;;11.10;99.90;;;;;;5071044;28;20083;-48
2022/10/25 01:50:40;;;;;;;4.68;2.63;;;11.10;99.90;;;;;;5054377;28;20041;-53
2022/10/25 01:53:07;;;;;;;4.03;2.47;;;11.10;99.90;;;;;;5066641;28;20575;-48
2022/10/25 01:55:39;;;;;;;;;;;11.00;99.90;;;;;;5071877;28;20060;-50
2022/10/25 01:58:24;;;;;;;7.63;2.78;;;11.00;99.90;;;;;;5070665;28;20018;-48
2022/10/25 02:01:07;;;;;;;4.80;2.60;;;10.90;99.90;;;;;;5069623;28;20540;-48
2022/10/25 02:03:45;;;;;;;4.00;2.50;;;10.90;99.90;;;;;;5067076;28;20078;-48
2022/10/25 02:06:31;;;;;;;4.03;2.35;;;10.90;99.90;;;;;;5077683;28;20043;-47
2022/10/25 02:09:24;;;;;;;7.85;2.28;;;10.80;99.90;;;;;;5086063;28;20044;-48
2022/10/25 02:11:52;;;;;;;6.78;2.50;;;10.80;99.90;;;;;;5082040;22;20060;-48
2022/10/25 02:14:36;;;;;;;5.55;2.58;;;10.80;99.90;;;;;;5081929;28;20071;-48
2022/10/25 02:17:23;;;;;;;5.57;2.17;;;10.80;99.90;;;;;;5078014;28;20072;-47
2022/10/25 02:19:55;;;;;;;6.60;2.75;;;10.80;99.90;;;;;;5080357;28;20040;-48
2022/10/25 02:22:28;;;;;;;4.57;2.35;;;10.80;99.90;;;;;;5081329;28;20083;-47
2022/10/25 02:24:56;;;;;;;4.43;2.47;;;10.70;99.90;;;;;;5061545;28;20040;-48
2022/10/25 02:27:24;;;;;;;5.45;2.33;;;10.70;99.90;;;;;;5069948;28;20071;-49
2022/10/25 02:29:52;;;;;;;4.28;2.42;;;10.80;99.90;;;;;;5069777;28;20044;-48
2022/10/25 02:32:19;;;;;;;5.53;2.42;;;10.80;99.90;;;;;;5062527;28;20075;-48
2022/10/25 02:34:47;;;;;;;;;;;10.70;99.90;;;;;;5071004;28;20128;-48
2022/10/25 02:37:13;;;;;;;5.57;2.20;;;10.70;99.90;;;;;;5070641;28;20019;-47
2022/10/25 02:39:41;;;;;;;2.67;1.98;;;10.70;99.90;;;;;;5061889;28;20558;-48
2022/10/25 02:42:07;;;;;;;9.93;2.17;;;10.70;99.90;;;;;;5063885;28;20076;-47
2022/10/25 02:44:34;;;;;;;2.90;2.20;;;10.70;99.90;;;;;;5059985;28;20123;-47
2022/10/25 02:47:01;;;;;;;3.25;1.88;;;10.60;99.90;;;;;;5070430;28;20078;-49
2022/10/25 02:49:28;;;;;;;5.13;2.03;;;10.60;99.90;;;;;;5068942;28;20479;-48
2022/10/25 02:51:54;;;;;;;5.18;2.08;;;10.60;99.90;;;;;;5059855;28;20121;-51
2022/10/25 02:54:21;;;;;;;5.50;1.80;;;10.50;99.90;;;;;;5070290;28;20070;-48
2022/10/25 02:56:51;;;;;;;3.22;1.95;;;10.50;99.90;;;;;;5069595;28;20072;-48
2022/10/25 02:59:18;;;;;;;3.63;2.10;;;10.60;99.90;;;;;;5070305;28;20122;-48
2022/10/25 03:01:45;;;;;;;4.13;2.00;;;10.60;99.90;;;;;;5044685;28;20116;-48
2022/10/25 03:04:12;;;;;;;3.17;2.22;;;10.60;99.90;;;;;;5067089;28;20123;-50
2022/10/25 03:06:39;;;;;;;4.32;1.98;;;10.60;99.90;;;;;;5066240;28;20064;-49
2022/10/25 03:09:05;;;;;;;7.43;2.08;;;10.60;99.90;;;;;;5063080;28;20127;-47
2022/10/25 03:11:32;;;;;;;6.00;1.95;;;10.70;99.90;;;;;;5069601;28;20052;-49
2022/10/25 03:13:59;;;;;;;3.08;1.80;;;10.60;99.90;;;;;;5069678;28;20131;-47
2022/10/25 03:16:26;;;;;;;3.35;2.20;;;10.70;99.90;;;;;;5060841;28;20129;-49
2022/10/25 03:18:56;;;;;;;5.38;1.88;;;10.60;99.90;;;;;;5070408;28;20065;-49
2022/10/25 03:21:24;;;;;;;4.63;1.65;;;10.60;99.90;;;;;;5056837;28;20072;-47
2022/10/25 03:23:51;;;;;;;6.93;2.25;;;10.60;99.90;;;;;;5042319;28;20753;-48
2022/10/25 03:26:18;;;;;;;5.18;1.65;;;10.50;99.90;;;;;;5070776;28;20135;-48
2022/10/25 03:28:44;;;;;;;5.40;2.22;;;10.50;99.90;;;;;;5042581;28;20477;-48
2022/10/25 03:31:13;;;;;;;6.55;1.80;;;10.50;99.90;;;;;;5041473;28;20081;-47
2022/10/25 03:33:40;;;;;;;5.85;2.13;;;10.50;99.90;;;;;;5044409;28;20071;-48
2022/10/25 03:36:08;;;;;;;18.50;4.93;;;10.50;99.90;;;;;;5042616;28;20069;-48
2022/10/25 03:38:34;;;;;;;5.15;2.30;;;10.60;99.90;;;;;;5043036;28;20048;-47
2022/10/25 03:41:01;;;;;;;4.40;2.00;;;10.60;99.90;;;;;;5048859;28;20045;-49
2022/10/25 03:43:28;;;;;;;5.13;2.17;;;10.60;99.90;;;;;;5068646;28;20074;-48
2022/10/25 03:45:55;;;;;;;6.57;2.30;;;10.60;99.90;;;;;;5041622;28;20096;-48
2022/10/25 03:48:21;;;;;;;2.15;1.65;;;10.60;99.90;;;;;;5040814;28;20079;-48
2022/10/25 03:50:48;;;;;;;2.63;0.82;;;10.70;99.90;;;;;;5051661;28;20045;-48
2022/10/25 03:53:15;;;;;;;8.93;1.58;;;10.70;99.90;;;;;;5066605;28;20472;-48
2022/10/25 03:55:42;;;;;;;2.80;1.50;;;10.70;99.90;;;;;;5060840;28;20095;-48
2022/10/25 03:58:08;;;;;;;3.38;1.33;;;10.70;99.90;;;;;;5039231;28;20033;-47
2022/10/25 04:00:35;;;;;;;5.05;1.55;;;10.70;99.90;;;;;;5042427;28;20063;-47
2022/10/25 04:03:02;;;;;;;5.22;2.13;;;10.70;99.90;;;;;;5068247;28;20453;-47
2022/10/25 04:05:30;;;;;;;5.32;2.00;;;10.70;99.90;;;;;;5068511;28;20044;-50
2022/10/25 04:07:58;;;;;;;4.45;2.20;;;10.70;99.90;;;;;;5047608;28;20072;-48
2022/10/25 04:10:25;;;;;;;6.22;2.15;;;10.70;99.90;;;;;;5060356;28;20040;-48
2022/10/25 04:12:52;;;;;;;13.43;1.83;;;10.70;99.90;;;;;;5072331;28;20080;-47
2022/10/25 04:15:20;;;;;;;3.28;1.58;;;10.70;99.90;;;;;;5063130;28;20045;-49
2022/10/25 04:17:49;;;;;;;5.05;2.22;;;10.70;99.90;;;;;;5061450;28;20052;-48
2022/10/25 04:20:15;;;;;;;12.00;3.85;;;10.60;99.90;;;;;;5073674;28;20044;-48
2022/10/25 04:22:42;;;;;;;8.90;4.57;;;10.70;99.90;;;;;;5065147;28;20068;-50
2022/10/25 04:25:09;;;;;;;8.10;4.40;;;10.70;99.90;;;;;;5065318;28;20064;-48
2022/10/25 04:27:35;;;;;;;8.90;3.80;;;10.70;99.90;;;;;;5053325;28;20124;-49
2022/10/25 04:30:02;;;;;;;4.30;3.03;;;10.70;99.90;;;;;;5040536;28;20050;-51
2022/10/25 04:32:29;;;;;;;6.35;3.13;;;10.60;99.90;;;;;;5049779;28;20060;-50
2022/10/25 04:34:56;;;;;;;3.22;2.00;;;10.70;99.90;;;;;;5039967;28;20032;-47
2022/10/25 04:37:22;;;;;;;3.65;1.83;;;10.60;99.90;;;;;;5044426;28;20041;-48
2022/10/25 04:39:49;;;;;;;6.38;2.22;;;10.60;99.90;;;;;;5046511;28;20409;-47
2022/10/25 04:42:18;;;;;;;4.05;2.58;;;10.60;99.90;;;;;;5052907;28;20054;-49
2022/10/25 04:44:44;;;;;;;5.43;2.08;;;10.60;99.90;;;;;;5040555;28;20450;-50
2022/10/25 04:47:11;;;;;;;2.28;1.70;;;10.60;99.90;;;;;;5042312;28;20128;-51
2022/10/25 04:49:38;;;;;;;1.88;1.38;;;10.50;99.90;;;;;;5048051;28;20037;-49
2022/10/25 04:52:05;;;;;;;3.33;1.60;;;10.60;99.90;;;;;;5047334;28;20077;-49
2022/10/25 04:54:31;;;;;;;2.08;1.58;;;10.50;99.90;;;;;;5042529;28;20710;-51
2022/10/25 04:56:59;;;;;;;5.13;1.23;;;10.50;99.90;;;;;;5057539;28;20115;-49
2022/10/25 04:59:25;;;;;;;;;;;10.50;99.90;;;;;;5050155;28;20069;-48
2022/10/25 05:01:52;;;;;;;2.00;1.30;;;10.50;99.90;;;;;;5044533;28;20426;-49
2022/10/25 05:04:19;;;;;;;1.88;1.17;;;10.50;99.90;;;;;;5053716;28;20048;-52
2022/10/25 05:06:45;;;;;;;6.32;1.70;;;10.50;99.90;;;;;;5066704;28;20071;-49
2022/10/25 05:09:12;;;;;;;5.55;3.53;;;10.50;99.90;;;;;;5067918;28;20141;-49
2022/10/25 05:11:39;;;;;;;5.00;3.30;;;10.50;99.90;;;;;;5071104;28;20064;-50
2022/10/25 05:14:06;;;;;;;9.57;3.58;;;10.60;99.90;;;;;;5069916;28;20128;-47
2022/10/25 05:16:34;;;;;;;7.75;3.47;;;10.60;99.90;;;;;;5060467;28;20101;-49
2022/10/25 05:19:01;;;;;;;5.22;3.05;;;10.60;99.90;;;;;;5071479;28;20044;-48
2022/10/25 05:21:29;;;;;;;8.18;2.80;;;10.60;99.90;;;;;;5054024;28;20120;-47
2022/10/25 05:24:00;;;;;;;4.82;3.13;;;10.60;99.90;;;;;;5045718;28;20036;-47
2022/10/25 05:26:29;;;;;;;3.88;2.28;;;10.50;99.90;;;;;;5064902;28;20084;-50
2022/10/25 05:28:56;;;;;;;7.15;3.50;;;10.50;99.90;;;;;;5050060;28;20037;-47
2022/10/25 05:31:24;;;;;;;;;;;10.50;99.90;;;;;;5045748;28;20087;-47
2022/10/25 05:33:55;;;;;;;7.20;3.30;;;10.50;99.90;;;;;;5050671;28;20369;-47
2022/10/25 05:36:23;;;;;;;6.05;3.83;;;10.50;99.90;;;;;;5039314;28;20041;-53
2022/10/25 05:38:53;;;;;;;4.85;3.03;;;10.50;99.90;;;;;;5051540;28;20074;-48
2022/10/25 05:41:19;;;;;;;4.93;3.13;;;10.50;99.90;;;;;;5067746;28;20123;-47
2022/10/25 05:43:46;;;;;;;6.00;3.55;;;10.50;99.90;;;;;;5056502;28;20499;-47
2022/10/25 05:46:20;;;;;;;6.00;3.80;;;10.50;99.90;;;;;;5070029;28;20496;-47
2022/10/25 05:48:49;;;;;;;8.55;3.72;;;10.50;99.90;;;;;;5069619;28;20267;-47
2022/10/25 05:51:20;;;;;;;11.32;3.70;;;10.50;99.90;;;;;;5054208;28;20115;-46
2022/10/25 05:54:04;;;;;;;6.93;3.60;;;10.50;99.90;;;;;;5069886;28;20044;-47
2022/10/25 05:56:32;;;;;;;6.90;4.03;;;10.50;99.90;;;;;;5061518;28;20079;-47
2022/10/25 05:59:10;;;;;;;6.10;3.53;;;10.50;99.90;;;;;;5055908;28;20041;-47
2022/10/25 06:01:38;;;;;;;;;;;10.50;99.90;;;;;;5068308;28;20090;-47
2022/10/25 06:04:06;;;;;;;9.32;3.38;;;10.60;99.90;;;;;;5069545;28;19921;-48
2022/10/25 06:06:33;;;;;;;7.22;3.33;;;10.60;99.90;;;;;;5070442;28;20068;-48
2022/10/25 06:09:00;;;;;;;6.45;3.13;;;10.70;99.90;;;;;;5061902;28;20044;-47
2022/10/25 06:11:27;;;;;;;6.70;3.72;;;10.70;99.90;;;;;;5070767;28;20048;-46
2022/10/25 06:13:54;;;;;;;;;;;10.70;99.90;;;;;;5065062;28;20493;-48
2022/10/25 06:16:22;;;;;;;6.05;3.72;;;10.80;99.90;;;;;;5066581;28;20352;-47
2022/10/25 06:18:49;;;;;;;5.78;4.22;;;10.80;99.90;;;;;;5069876;28;20124;-48
2022/10/25 06:21:18;;;;;;;5.40;3.97;;;10.80;99.90;;;;;;5070900;28;20501;-48
2022/10/25 06:23:45;;;;;;;7.35;3.10;;;10.80;99.90;;;;;;5059879;28;20115;-47
2022/10/25 06:26:15;;;;;;;;;;;10.80;99.90;;;;;;5070815;28;20068;-48
2022/10/25 06:28:42;;;;;;;5.97;3.40;;;10.80;99.90;;;;;;5070287;28;20007;-47
2022/10/25 06:31:17;;;;;;;8.98;3.63;;;10.80;99.90;;;;;;5062342;28;20110;-48
2022/10/25 06:33:44;;;;;;;4.18;3.10;;;10.90;99.90;;;;;;5064106;28;20125;-49
2022/10/25 06:36:17;;;;;;;5.15;3.03;;;10.90;99.90;;;;;;5069078;28;20094;-48
2022/10/25 06:38:45;;;;;;;6.13;3.50;;;11.00;99.90;;;;;;5062644;28;20068;-48
2022/10/25 06:41:14;;;;;;;6.38;3.38;;;11.00;99.90;;;;;;5069900;28;20075;-47
2022/10/25 06:43:41;;;;;;;6.93;3.55;;;11.00;99.90;;;;;;5070833;28;20094;-47
2022/10/25 06:46:10;;;;;;;4.25;3.00;;;11.10;99.90;;;;;;5070124;28;20446;-47
2022/10/25 06:48:37;;;;;;;6.80;3.38;;;11.10;99.90;;;;;;5059313;28;20302;-47
2022/10/25 06:51:08;;;;;;;5.95;4.13;;;11.10;99.90;;;;;;5062559;28;20041;-47
2022/10/25 06:53:36;;;;;;;17.10;9.73;;;11.10;99.90;;;;;;5052611;28;20032;-47
2022/10/25 06:56:07;;;;;;;34.53;15.35;;;11.10;99.90;;;;;;5068837;28;20460;-48
2022/10/25 06:58:39;;;;;;;31.80;15.52;;;11.10;99.90;;;;;;5070155;28;20086;-47
2022/10/25 07:01:07;;;;;;;7.53;5.38;;;11.20;99.90;;;;;;5069513;28;20070;-50
2022/10/25 07:03:34;;;;;;;6.13;4.57;;;11.20;99.90;;;;;;5057942;28;20041;-47
2022/10/25 07:06:08;;;;;;;5.95;3.88;;;11.10;99.90;;;;;;5069583;28;20036;-48
2022/10/25 07:08:36;;;;;;;4.18;2.80;;;11.20;99.90;;;;;;5068160;28;20083;-47
2022/10/25 07:11:04;;;;;;;3.40;2.33;;;11.20;99.90;;;;;;5065696;28;20075;-48
2022/10/25 07:13:32;;;;;;;6.47;3.20;;;11.20;99.90;;;;;;5069371;28;20151;-47
2022/10/25 07:16:04;;;;;;;3.75;2.92;;;11.20;99.90;;;;;;5069583;28;20090;-48
2022/10/25 07:18:32;;;;;;;5.28;2.58;;;11.20;99.90;;;;;;5054287;28;20505;-48
2022/10/25 07:21:00;;;;;;;5.63;2.30;;;11.20;99.90;;;;;;5069974;28;20481;-48
2022/10/25 07:23:27;;;;;;;2.97;2.45;;;11.20;99.90;;;;;;5060476;28;20080;-48
2022/10/25 07:25:54;;;;;;;6.85;2.70;;;11.30;99.90;;;;;;5050524;28;20068;-50
2022/10/25 07:28:21;;;;;;;4.00;2.38;;;11.30;99.90;;;;;;5069475;28;20079;-47
2022/10/25 07:30:48;;;;;;;6.93;2.08;;;11.40;99.90;;;;;;5069370;28;20099;-47
2022/10/25 07:33:17;;;;;;;5.15;2.75;;;11.50;99.90;;;;;;5068893;28;20094;-49
2022/10/25 07:35:48;;;;;;;5.50;2.50;;;11.60;99.90;;;;;;5061249;28;20115;-49
2022/10/25 07:38:35;;;;;;;4.22;2.05;;;11.60;99.90;;;;;;5034220;28;20060;-48
2022/10/25 07:41:02;;;;;;;4.90;3.00;;;11.70;99.90;;;;;;5034364;28;20076;-47
2022/10/25 07:43:29;;;;;;;6.07;2.40;;;11.70;99.90;;;;;;5038417;28;20072;-47
2022/10/25 07:45:56;;;;;;;4.70;2.50;;;11.70;99.90;;;;;;5074133;28;20044;-47
2022/10/25 07:48:23;;;;;;;4.60;2.40;;;11.80;99.90;;;;;;5072514;28;20072;-47
2022/10/25 07:50:50;;;;;;;3.35;2.15;;;11.90;99.90;;;;;;5074424;28;20068;-47
2022/10/25 07:53:17;;;;;;;5.95;2.47;;;11.90;99.90;;;;;;5053580;28;20084;-48
2022/10/25 07:55:54;;;;;;;4.05;2.35;;;11.90;99.90;;;;;;5073602;28;20409;-47
2022/10/25 07:58:21;;;;;;;3.60;2.60;;;11.90;99.90;;;;;;5071560;28;20072;-47
2022/10/25 08:00:48;;;;;;;6.95;3.13;;;11.90;99.90;;;;;;5063589;28;20068;-48
2022/10/25 08:03:16;;;;;;;7.35;3.08;;;12.00;99.90;;;;;;5068193;28;20060;-50
2022/10/25 08:05:47;;;;;;;6.45;2.78;;;12.00;99.90;;;;;;5072597;28;20032;-48
2022/10/25 08:08:14;;;;;;;4.10;3.00;;;12.10;99.90;;;;;;5072713;28;20115;-47
2022/10/25 08:10:42;;;;;;;5.22;3.50;;;12.10;99.90;;;;;;5055856;28;20094;-48
2022/10/25 08:13:09;;;;;;;6.75;3.67;;;12.20;99.90;;;;;;5101048;22;20500;-50
2022/10/25 08:15:36;;;;;;;9.40;4.07;;;12.30;99.90;;;;;;5110084;28;20545;-47
2022/10/25 08:18:03;;;;;;;5.53;3.80;;;12.40;99.90;;;;;;5111240;28;20035;-48
2022/10/25 08:20:30;;;;;;;;;;;12.50;99.90;;;;;;5114277;28;20564;-48
2022/10/25 08:23:17;;;;;;;11.70;4.22;;;12.70;99.90;;;;;;5111077;28;19926;-47
2022/10/25 08:25:44;;;;;;;11.18;5.30;;;12.70;99.90;;;;;;5113189;28;20449;-47
2022/10/25 08:28:11;;;;;;;;;;;12.60;99.90;;;;;;5113724;28;20500;-49
2022/10/25 08:30:40;;;;;;;8.43;4.68;;;12.60;99.90;;;;;;5098677;28;19920;-48
2022/10/25 08:33:06;;;;;;;9.63;5.57;;;12.50;99.90;;;;;;5112724;28;20528;-48
2022/10/25 08:35:37;;;;;;;13.32;5.95;;;12.60;99.90;;;;;;5112899;28;20039;-48
2022/10/25 08:38:04;;;;;;;10.02;5.40;;;12.70;99.90;;;;;;5107831;28;20126;-48
2022/10/25 08:40:55;;;;;;;8.80;5.10;;;12.70;99.90;;;;;;5113575;28;20467;-48
2022/10/25 08:43:28;;;;;;;9.15;5.35;;;12.70;99.90;;;;;;5112403;28;20110;-47
2022/10/25 08:46:30;;;;;;;10.38;6.00;;;12.60;99.90;;;;;;5109073;28;20650;-49
2022/10/25 08:49:12;;;;;;;10.88;5.80;;;12.60;99.90;;;;;;5109291;28;20075;-47
2022/10/25 08:51:42;;;;;;;9.40;5.57;;;12.60;99.90;;;;;;5110228;28;20040;-48
2022/10/25 08:54:31;;;;;;;8.77;6.05;;;12.60;99.90;;;;;;5107907;28;20044;-48
2022/10/25 08:57:16;;;;;;;13.77;7.30;;;12.50;99.90;;;;;;5111367;28;20097;-49
2022/10/25 08:59:49;;;;;;;17.58;6.07;;;12.50;99.90;;;;;;5113118;28;20136;-48
2022/10/25 09:02:35;;;;;;;7.68;5.78;;;12.50;99.90;;;;;;5109272;28;20451;-49
2022/10/25 09:05:03;;;;;;;12.13;6.80;;;12.40;99.90;;;;;;5112491;28;20039;-48
2022/10/25 09:08:07;;;;;;;12.13;6.60;;;12.50;99.90;;;;;;5112714;28;20089;-47
2022/10/25 09:10:47;;;;;;;12.35;6.28;;;12.70;99.90;;;;;;5108261;28;20063;-48
2022/10/25 09:13:29;;;;;;;10.25;6.22;;;12.80;99.90;;;;;;5112946;28;20114;-48
2022/10/25 09:16:18;;;;;;;10.45;5.50;;;12.90;99.90;;;;;;5112000;28;20090;-52
2022/10/25 09:18:49;;;;;;;8.32;5.55;;;13.00;99.90;;;;;;5111081;28;20066;-48
2022/10/25 09:21:38;;;;;;;6.53;4.97;;;13.10;99.90;;;;;;5112089;28;20075;-49
2022/10/25 09:24:19;;;;;;;8.43;4.47;;;13.00;99.90;;;;;;5107455;28;20075;-47
2022/10/25 09:27:11;;;;;;;8.77;3.88;;;13.10;99.90;;;;;;5093680;28;20475;-48
2022/10/25 09:30:03;;;;;;;8.60;3.83;;;13.10;99.90;;;;;;5098750;28;20071;-48
2022/10/25 09:32:33;;;;;;;5.35;3.00;;;13.30;99.90;;;;;;5102778;28;20063;-47
2022/10/25 09:35:02;;;;;;;4.85;3.40;;;13.40;99.90;;;;;;5110762;28;20148;-48
2022/10/25 09:37:43;;;;;;;6.05;3.10;;;13.50;99.90;;;;;;5106757;28;20500;-48
2022/10/25 09:40:18;;;;;;;6.00;3.40;;;13.70;99.90;;;;;;5109205;28;20040;-48
2022/10/25 09:43:07;;;;;;;4.28;3.17;;;13.90;99.90;;;;;;5112466;28;20535;-48
2022/10/25 09:45:45;;;;;;;5.70;3.17;;;14.00;99.90;;;;;;5102676;28;20491;-48
2022/10/25 09:48:19;;;;;;;7.15;3.60;;;14.10;99.90;;;;;;5111703;28;20074;-47
2022/10/25 09:50:54;;;;;;;6.00;3.10;;;14.30;99.90;;;;;;5104277;28;20570;-49
2022/10/25 09:53:21;;;;;;;7.28;2.92;;;14.20;99.90;;;;;;5109279;28;20093;-48
2022/10/25 09:55:55;;;;;;;7.60;3.80;;;14.10;99.90;;;;;;5110356;28;20055;-50
2022/10/25 09:58:23;;;;;;;5.15;3.72;;;14.00;99.90;;;;;;5111548;28;20071;-48
2022/10/25 10:00:51;;;;;;;9.35;3.92;;;14.00;99.90;;;;;;5101527;28;20130;-48
2022/10/25 10:03:19;;;;;;;5.00;3.70;;;14.10;99.90;;;;;;5088875;28;20039;-48
2022/10/25 10:05:50;;;;;;;4.72;3.65;;;14.20;99.90;;;;;;5111641;28;20548;-48
2022/10/25 10:08:17;;;;;;;5.38;3.80;;;14.30;99.90;;;;;;5105091;28;20031;-48
2022/10/25 10:10:46;;;;;;;5.70;4.50;;;14.30;99.90;;;;;;5109726;28;20075;-49
2022/10/25 10:13:17;;;;;;;4.47;3.25;;;14.40;99.90;;;;;;5110297;28;20070;-49
2022/10/25 10:15:56;;;;;;;4.13;2.63;;;14.60;99.90;;;;;;5110547;28;20092;-50
2022/10/25 10:18:30;;;;;;;4.10;2.72;;;14.70;99.90;;;;;;5107704;28;20230;-48
2022/10/25 10:21:06;;;;;;;2.65;1.90;;;14.60;99.90;;;;;;5093819;28;20116;-48
2022/10/25 10:23:48;;;;;;;5.60;1.80;;;14.60;99.90;;;;;;5110427;28;20062;-49
2022/10/25 10:26:29;;;;;;;11.15;2.45;;;14.60;99.90;;;;;;5110539;28;20078;-48
2022/10/25 10:29:20;;;;;;;4.63;2.50;;;14.50;99.90;;;;;;5110185;28;20359;-49
2022/10/25 10:31:54;;;;;;;3.70;2.60;;;14.40;99.90;;;;;;5101177;28;20052;-48
2022/10/25 10:34:20;;;;;;;3.17;2.60;;;14.50;99.90;;;;;;5107996;28;20097;-49
2022/10/25 10:37:11;;;;;;;3.05;2.70;;;14.60;99.90;;;;;;5110604;28;20082;-48
2022/10/25 10:39:57;;;;;;;3.55;2.50;;;14.60;99.90;;;;;;5111436;28;20032;-50
2022/10/25 10:42:36;;;;;;;6.10;2.83;;;14.70;99.90;;;;;;5101749;28;20071;-48
2022/10/25 10:45:11;;;;;;;7.38;2.30;;;14.70;99.90;;;;;;5111249;28;20503;-49
2022/10/25 10:47:55;;;;;;;5.40;2.53;;;14.80;99.90;;;;;;5111111;28;20078;-48
2022/10/25 10:50:23;;;;;;;4.55;3.10;;;14.90;99.90;;;;;;5090642;28;20122;-48
2022/10/25 10:52:55;;;;;;;4.70;2.88;;;15.00;99.90;;;;;;5106668;28;20480;-48
2022/10/25 10:55:31;;;;;;;4.85;2.60;;;15.10;99.90;;;;;;5110378;28;20079;-48
2022/10/25 10:58:11;;;;;;;2.63;2.38;;;15.10;99.90;;;;;;5092677;28;20101;-50
2022/10/25 11:00:38;;;;;;;4.65;2.47;;;15.20;99.90;;;;;;5096836;28;20088;-49
2022/10/25 11:03:05;;;;;;;3.20;2.22;;;15.20;99.90;;;;;;5109728;28;20042;-48
2022/10/25 11:05:36;;;;;;;3.47;2.40;;;15.10;99.90;;;;;;5109612;28;20070;-48
2022/10/25 11:08:17;;;;;;;3.85;2.58;;;15.10;99.90;;;;;;5105349;28;20071;-48
2022/10/25 11:10:44;;;;;;;5.55;1.85;;;15.20;99.90;;;;;;5109982;28;20131;-48
2022/10/25 11:13:18;;;;;;;3.70;2.47;;;15.30;99.90;;;;;;5114436;28;20047;-48
2022/10/25 11:16:07;;;;;;;4.75;2.45;;;15.30;99.90;;;;;;5108192;28;20094;-48
2022/10/25 11:18:38;;;;;;;6.90;2.72;;;15.40;99.90;;;;;;5107149;28;20135;-50
2022/10/25 11:21:29;;;;;;;3.08;2.30;;;15.50;99.90;;;;;;5114292;28;20101;-51
2022/10/25 11:24:15;;;;;;;4.82;2.55;;;15.50;99.90;;;;;;5105277;28;20158;-49
2022/10/25 11:26:54;;;;;;;3.33;2.25;;;15.60;99.90;;;;;;5113243;28;20066;-48
2022/10/25 11:29:38;;;;;;;3.00;2.40;;;15.60;99.90;;;;;;5107716;28;20067;-48
2022/10/25 11:32:27;;;;;;;3.47;2.58;;;15.50;99.90;;;;;;5115591;28;20036;-48
2022/10/25 11:35:08;;;;;;;4.63;2.08;;;15.60;99.90;;;;;;5112764;28;20043;-48
2022/10/25 11:37:59;;;;;;;3.30;2.28;;;15.70;99.90;;;;;;5106874;28;20058;-48
2022/10/25 11:40:33;;;;;;;6.80;2.20;;;15.70;99.90;;;;;;5110938;28;20040;-48
2022/10/25 11:43:31;;;;;;;3.45;2.08;;;15.80;99.90;;;;;;5112896;28;20063;-48
2022/10/25 11:46:20;;;;;;;2.58;1.98;;;15.80;99.90;;;;;;5113792;28;20067;-48
2022/10/25 11:49:00;;;;;;;3.83;2.55;;;15.90;99.90;;;;;;5109093;28;20127;-49
2022/10/25 11:51:47;;;;;;;3.33;2.30;;;15.90;99.90;;;;;;5114444;28;20555;-50
2022/10/25 11:54:36;;;;;;;2.83;2.20;;;15.90;99.90;;;;;;5113127;28;20125;-50
2022/10/25 11:57:33;;;;;;;7.25;1.98;;;15.90;99.90;;;;;;5110681;28;20118;-48
2022/10/25 12:00:03;;;;;;;2.90;2.30;;;15.90;99.90;;;;;;5108873;28;20124;-49
2022/10/25 12:02:30;;;;;;;3.45;2.70;;;15.90;99.90;;;;;;5114193;28;20115;-48
2022/10/25 12:05:18;;;;;;;4.07;2.55;;;15.90;99.90;;;;;;5107677;28;20522;-48
2022/10/25 12:08:11;;;;;;;4.60;2.58;;;16.00;99.90;;;;;;5095670;28;20664;-48
2022/10/25 12:10:53;;;;;;;5.65;2.72;;;16.00;99.90;;;;;;5052944;28;20113;-48
2022/10/25 12:13:28;;;;;;;5.53;2.00;;;16.00;99.90;;;;;;5098212;28;20067;-49
2022/10/25 12:15:57;;;;;;;4.32;2.30;;;16.10;99.90;;;;;;5113866;28;20119;-48
2022/10/25 12:18:32;;;;;;;3.45;2.13;;;16.20;99.90;;;;;;5112618;28;20071;-51
2022/10/25 12:21:01;;;;;;;2.28;1.60;;;16.20;99.90;;;;;;5110295;28;20074;-48
2022/10/25 12:23:41;;;;;;;2.42;2.10;;;16.20;99.90;;;;;;5111809;28;20741;-53
2022/10/25 12:26:19;;;;;;;3.42;1.98;;;16.30;99.90;;;;;;5114129;28;20046;-51
2022/10/25 12:28:48;;;;;;;4.45;1.95;;;16.40;99.90;;;;;;5110663;28;20051;-48
2022/10/25 12:31:17;;;;;;;2.53;1.63;;;16.40;99.90;;;;;;5111217;28;20135;-48
2022/10/25 12:33:46;;;;;;;1.88;1.50;;;16.40;99.90;;;;;;5112124;28;20059;-50
2022/10/25 12:36:37;;;;;;;5.05;1.80;;;16.50;99.90;;;;;;5113934;28;20040;-49
2022/10/25 12:39:14;;;;;;;3.22;1.30;;;16.60;99.90;;;;;;5109312;28;20138;-48
2022/10/25 12:41:45;;;;;;;2.50;1.30;;;16.70;99.90;;;;;;5094517;28;20701;-48
2022/10/25 12:44:36;;;;;;;2.78;1.63;;;16.80;99.90;;;;;;5095152;28;20130;-49
2022/10/25 12:47:31;;;;;;;2.13;1.30;;;16.80;99.90;;;;;;5104713;28;20067;-48
2022/10/25 12:50:30;;;;;;;4.50;1.42;;;16.80;99.90;;;;;;5113395;28;20051;-49
2022/10/25 12:53:08;;;;;;;4.38;1.80;;;16.80;99.90;;;;;;5054115;28;20090;-48
2022/10/25 12:56:03;;;;;;;2.97;1.20;;;16.90;99.90;;;;;;5103505;28;20040;-49
2022/10/25 12:58:41;;;;;;;2.20;1.20;;;16.90;99.90;;;;;;5068052;28;20410;-49
2022/10/25 13:01:35;;;;;;;2.83;2.10;;;16.90;99.90;;;;;;5112650;28;20100;-48
2022/10/25 13:04:36;;;;;;;4.35;1.40;;;16.90;99.90;;;;;;5102569;28;20575;-49
2022/10/25 13:07:05;;;;;;;2.40;1.80;;;16.90;99.90;;;;;;5105579;28;20104;-50
2022/10/25 13:09:34;;;;;;;3.63;1.55;;;16.90;99.90;;;;;;5113282;28;20044;-51
2022/10/25 13:12:05;;;;;;;2.97;1.08;;;16.80;99.90;;;;;;5108491;28;20070;-50
2022/10/25 13:14:44;;;;;;;3.53;1.15;;;16.80;99.90;;;;;;5091013;28;20048;-49
2022/10/25 13:17:16;;;;;;;2.60;1.10;;;16.80;99.90;;;;;;5110114;28;20508;-49